Port Alberni, British Columbia

Past 24 Hour Conditions

This table is a summary of hourly weather conditions for the past 24 hours. This summary includes the following parameters: temperature, humidity, dew point, wind speed and direction, air pressure, visibility and/or wind chill and humidex.
Date / Time
(PDT)
Conditions Temp (°F) Humidity (%) Dew Point (°F) Wind (mph) Pressure (inches) Vis (mi) Humidex
22 August 2014
2:00 N/A 53 93 51 calm 30.0 N/A *
1:00 N/A 52   92 50 WNW 2 30.0 N/A *
00:00 N/A 53 91 50 calm 30.0 N/A *
21 August 2014
23:00 N/A 55 87 51 calm 30.0 N/A *
22:00 N/A 58 81 52 calm 30.0 N/A *
21:00 N/A 61 74 53 SE 4 30.0 N/A *
20:00 N/A 64 67 53 E 7 30.0 N/A *
19:00 N/A 68 56 52 ESE 8 29.9 N/A *
18:00 N/A 73 50 53 ESE 8 29.9 N/A 76
17:00 N/A 77 40 51 ESE 8 29.9 N/A 80
16:00 N/A 78   39 51 ESE 8 29.9 N/A 80
15:00 N/A 75 46 53 ESE 7 29.9 N/A 79
14:00 N/A 74 50 54 S 3 30.0 N/A 78
13:00 N/A 72 57 55 ENE 4 30.0 N/A 77
12:00 N/A 70 63 57 ENE 5 30.0 N/A *
11:00 N/A 64 72 55 calm 30.0 N/A *
10:00 N/A 61 79 55 calm 30.0 N/A *
9:00 N/A 59 82 54 calm 30.0 N/A *
8:00 N/A 58 84 53 calm 30.0 N/A *
7:00 N/A 56 87 53 NNW 3 30.0 N/A *
6:00 N/A 57 87 53 calm 30.0 N/A *
5:00 N/A 56 88 53 NE 2 30.0 N/A *
4:00 N/A 56 90 53 calm 30.0 N/A *
3:00 N/A 54 90 51 calm 30.0 N/A *
2:00 N/A 55 89 52 calm 30.0 N/A *
N/A
Not available
 ↑ 
Highest temperature
 ↓ 
Lowest temperature
*
Value not significant.

If you require additional historical weather information, please visit Climate Data Online.